sensor_id;sensor_type;location;lat;lon;timestamp;P1;durP1;ratioP1;P2;durP2;ratioP2
79365;SDS011;68833;53.160;17.920;2023-06-22T00:02:01;19.30;;;12.50;;
79365;SDS011;68833;53.160;17.920;2023-06-22T00:04:28;18.30;;;12.70;;
79365;SDS011;68833;53.160;17.920;2023-06-22T00:06:55;20.60;;;13.30;;
79365;SDS011;68833;53.160;17.920;2023-06-22T00:09:21;19.40;;;13.10;;
79365;SDS011;68833;53.160;17.920;2023-06-22T00:11:48;19.90;;;13.20;;
79365;SDS011;68833;53.160;17.920;2023-06-22T00:14:14;20.20;;;13.90;;
79365;SDS011;68833;53.160;17.920;2023-06-22T00:16:40;20.00;;;13.80;;
79365;SDS011;68833;53.160;17.920;2023-06-22T00:19:08;19.50;;;12.90;;
79365;SDS011;68833;53.160;17.920;2023-06-22T00:21:37;19.90;;;13.90;;
79365;SDS011;68833;53.160;17.920;2023-06-22T00:24:04;21.50;;;13.70;;
79365;SDS011;68833;53.160;17.920;2023-06-22T00:26:31;17.20;;;12.70;;
79365;SDS011;68833;53.160;17.920;2023-06-22T00:28:57;20.50;;;14.20;;
79365;SDS011;68833;53.160;17.920;2023-06-22T00:31:23;23.20;;;15.10;;
79365;SDS011;68833;53.160;17.920;2023-06-22T00:33:49;21.90;;;14.30;;
79365;SDS011;68833;53.160;17.920;2023-06-22T00:36:16;18.30;;;13.30;;
79365;SDS011;68833;53.160;17.920;2023-06-22T00:38:43;18.20;;;12.90;;
79365;SDS011;68833;53.160;17.920;2023-06-22T00:41:09;18.80;;;13.30;;
79365;SDS011;68833;53.160;17.920;2023-06-22T00:43:36;18.20;;;12.00;;
79365;SDS011;68833;53.160;17.920;2023-06-22T00:46:02;18.70;;;12.80;;
79365;SDS011;68833;53.160;17.920;2023-06-22T00:48:29;18.70;;;12.40;;
79365;SDS011;68833;53.160;17.920;2023-06-22T00:50:55;19.40;;;12.40;;
79365;SDS011;68833;53.160;17.920;2023-06-22T00:53:23;17.00;;;12.00;;
79365;SDS011;68833;53.160;17.920;2023-06-22T00:55:49;16.40;;;12.00;;
79365;SDS011;68833;53.160;17.920;2023-06-22T00:58:17;16.80;;;12.10;;
79365;SDS011;68833;53.160;17.920;2023-06-22T01:00:48;18.00;;;12.10;;
79365;SDS011;68833;53.160;17.920;2023-06-22T01:03:14;17.80;;;12.00;;
79365;SDS011;68833;53.160;17.920;2023-06-22T01:05:42;16.80;;;10.80;;
79365;SDS011;68833;53.160;17.920;2023-06-22T01:08:16;16.10;;;11.50;;
79365;SDS011;68833;53.160;17.920;2023-06-22T01:10:55;12.40;;;10.00;;
79365;SDS011;68833;53.160;17.920;2023-06-22T01:16:15;14.70;;;9.90;;
79365;SDS011;68833;53.160;17.920;2023-06-22T01:18:46;13.20;;;9.40;;
79365;SDS011;68833;53.160;17.920;2023-06-22T01:21:17;14.50;;;9.60;;
79365;SDS011;68833;53.160;17.920;2023-06-22T01:26:38;15.00;;;9.10;;
79365;SDS011;68833;53.160;17.920;2023-06-22T01:29:11;14.50;;;9.40;;
79365;SDS011;68833;53.160;17.920;2023-06-22T01:31:39;13.80;;;9.80;;
79365;SDS011;68833;53.160;17.920;2023-06-22T01:34:08;14.00;;;8.80;;
79365;SDS011;68833;53.160;17.920;2023-06-22T01:36:35;13.50;;;8.90;;
79365;SDS011;68833;53.160;17.920;2023-06-22T01:39:03;12.10;;;9.10;;
79365;SDS011;68833;53.160;17.920;2023-06-22T01:41:33;10.80;;;8.20;;
79365;SDS011;68833;53.160;17.920;2023-06-22T01:44:01;13.90;;;8.70;;
79365;SDS011;68833;53.160;17.920;2023-06-22T01:46:31;16.70;;;9.80;;
79365;SDS011;68833;53.160;17.920;2023-06-22T01:48:58;14.10;;;8.40;;
79365;SDS011;68833;53.160;17.920;2023-06-22T01:51:24;13.80;;;8.70;;
79365;SDS011;68833;53.160;17.920;2023-06-22T01:53:51;13.40;;;8.70;;
79365;SDS011;68833;53.160;17.920;2023-06-22T01:56:18;12.40;;;8.60;;
79365;SDS011;68833;53.160;17.920;2023-06-22T01:58:48;12.40;;;8.50;;
79365;SDS011;68833;53.160;17.920;2023-06-22T02:01:20;13.80;;;8.80;;
79365;SDS011;68833;53.160;17.920;2023-06-22T02:03:57;13.50;;;8.60;;
79365;SDS011;68833;53.160;17.920;2023-06-22T02:06:39;14.30;;;8.50;;
79365;SDS011;68833;53.160;17.920;2023-06-22T02:09:12;15.40;;;9.60;;
79365;SDS011;68833;53.160;17.920;2023-06-22T02:11:41;14.10;;;9.50;;
79365;SDS011;68833;53.160;17.920;2023-06-22T02:14:09;13.50;;;8.90;;
79365;SDS011;68833;53.160;17.920;2023-06-22T02:16:42;13.20;;;9.10;;
79365;SDS011;68833;53.160;17.920;2023-06-22T02:19:10;16.60;;;10.10;;
79365;SDS011;68833;53.160;17.920;2023-06-22T02:21:36;13.90;;;9.10;;
79365;SDS011;68833;53.160;17.920;2023-06-22T02:24:02;14.90;;;10.30;;
79365;SDS011;68833;53.160;17.920;2023-06-22T02:26:30;15.40;;;11.00;;
79365;SDS011;68833;53.160;17.920;2023-06-22T02:28:57;14.60;;;8.90;;
79365;SDS011;68833;53.160;17.920;2023-06-22T02:31:25;13.30;;;8.60;;
79365;SDS011;68833;53.160;17.920;2023-06-22T02:33:59;14.30;;;9.70;;
79365;SDS011;68833;53.160;17.920;2023-06-22T02:36:25;12.90;;;8.70;;
79365;SDS011;68833;53.160;17.920;2023-06-22T02:38:54;13.70;;;8.60;;
79365;SDS011;68833;53.160;17.920;2023-06-22T02:41:23;12.20;;;7.80;;
79365;SDS011;68833;53.160;17.920;2023-06-22T02:43:50;11.60;;;6.90;;
79365;SDS011;68833;53.160;17.920;2023-06-22T02:46:19;11.80;;;6.70;;
79365;SDS011;68833;53.160;17.920;2023-06-22T02:48:45;10.90;;;6.80;;
79365;SDS011;68833;53.160;17.920;2023-06-22T02:51:12;11.80;;;7.20;;
79365;SDS011;68833;53.160;17.920;2023-06-22T02:53:38;10.90;;;7.30;;
79365;SDS011;68833;53.160;17.920;2023-06-22T02:56:04;12.30;;;7.40;;
79365;SDS011;68833;53.160;17.920;2023-06-22T02:58:31;11.50;;;7.10;;
79365;SDS011;68833;53.160;17.920;2023-06-22T03:01:05;9.80;;;6.60;;
79365;SDS011;68833;53.160;17.920;2023-06-22T03:03:32;13.90;;;7.30;;
79365;SDS011;68833;53.160;17.920;2023-06-22T03:05:58;12.60;;;7.50;;
79365;SDS011;68833;53.160;17.920;2023-06-22T03:08:27;13.50;;;6.60;;
79365;SDS011;68833;53.160;17.920;2023-06-22T03:10:54;11.80;;;7.10;;
79365;SDS011;68833;53.160;17.920;2023-06-22T03:13:20;13.30;;;7.50;;
79365;SDS011;68833;53.160;17.920;2023-06-22T03:15:46;10.90;;;7.40;;
79365;SDS011;68833;53.160;17.920;2023-06-22T03:18:13;11.30;;;7.30;;
79365;SDS011;68833;53.160;17.920;2023-06-22T03:20:39;10.50;;;6.90;;
79365;SDS011;68833;53.160;17.920;2023-06-22T03:25:35;12.50;;;7.70;;
79365;SDS011;68833;53.160;17.920;2023-06-22T03:28:01;13.10;;;7.80;;
79365;SDS011;68833;53.160;17.920;2023-06-22T03:30:28;11.10;;;7.50;;
79365;SDS011;68833;53.160;17.920;2023-06-22T03:32:54;11.80;;;7.10;;
79365;SDS011;68833;53.160;17.920;2023-06-22T03:35:20;11.80;;;6.70;;
79365;SDS011;68833;53.160;17.920;2023-06-22T03:37:47;11.60;;;7.50;;
79365;SDS011;68833;53.160;17.920;2023-06-22T03:40:14;12.60;;;7.20;;
79365;SDS011;68833;53.160;17.920;2023-06-22T03:42:40;10.90;;;6.50;;
79365;SDS011;68833;53.160;17.920;2023-06-22T03:45:09;16.50;;;5.80;;
79365;SDS011;68833;53.160;17.920;2023-06-22T03:47:35;8.70;;;5.70;;
79365;SDS011;68833;53.160;17.920;2023-06-22T03:50:02;12.10;;;6.70;;
79365;SDS011;68833;53.160;17.920;2023-06-22T03:52:32;13.20;;;6.80;;
79365;SDS011;68833;53.160;17.920;2023-06-22T03:54:58;11.00;;;6.30;;
79365;SDS011;68833;53.160;17.920;2023-06-22T03:57:24;11.20;;;7.30;;
79365;SDS011;68833;53.160;17.920;2023-06-22T03:59:50;13.40;;;6.30;;
79365;SDS011;68833;53.160;17.920;2023-06-22T04:02:17;11.50;;;6.20;;
79365;SDS011;68833;53.160;17.920;2023-06-22T04:04:44;9.90;;;6.40;;
79365;SDS011;68833;53.160;17.920;2023-06-22T04:07:10;9.60;;;6.90;;
79365;SDS011;68833;53.160;17.920;2023-06-22T04:09:37;13.30;;;7.20;;
79365;SDS011;68833;53.160;17.920;2023-06-22T04:12:03;15.50;;;7.00;;
79365;SDS011;68833;53.160;17.920;2023-06-22T04:14:30;12.60;;;6.90;;
79365;SDS011;68833;53.160;17.920;2023-06-22T04:16:57;11.40;;;6.90;;
79365;SDS011;68833;53.160;17.920;2023-06-22T04:19:23;13.30;;;7.00;;
79365;SDS011;68833;53.160;17.920;2023-06-22T04:21:50;12.70;;;6.80;;
79365;SDS011;68833;53.160;17.920;2023-06-22T04:24:16;14.40;;;7.10;;
79365;SDS011;68833;53.160;17.920;2023-06-22T04:26:42;12.80;;;6.10;;
79365;SDS011;68833;53.160;17.920;2023-06-22T04:29:11;14.60;;;6.70;;
79365;SDS011;68833;53.160;17.920;2023-06-22T04:31:37;15.20;;;6.40;;
79365;SDS011;68833;53.160;17.920;2023-06-22T04:34:04;13.50;;;7.20;;
79365;SDS011;68833;53.160;17.920;2023-06-22T04:36:33;10.80;;;6.70;;
79365;SDS011;68833;53.160;17.920;2023-06-22T04:41:35;9.40;;;6.40;;
79365;SDS011;68833;53.160;17.920;2023-06-22T04:44:15;11.10;;;6.40;;
79365;SDS011;68833;53.160;17.920;2023-06-22T04:46:52;12.60;;;5.70;;
79365;SDS011;68833;53.160;17.920;2023-06-22T04:49:26;13.30;;;6.30;;
79365;SDS011;68833;53.160;17.920;2023-06-22T04:52:00;12.20;;;6.60;;
79365;SDS011;68833;53.160;17.920;2023-06-22T04:54:31;11.10;;;6.60;;
79365;SDS011;68833;53.160;17.920;2023-06-22T04:57:02;10.50;;;6.20;;
79365;SDS011;68833;53.160;17.920;2023-06-22T04:59:30;10.20;;;6.30;;
79365;SDS011;68833;53.160;17.920;2023-06-22T05:01:57;10.10;;;5.20;;
79365;SDS011;68833;53.160;17.920;2023-06-22T05:04:25;12.70;;;6.70;;
79365;SDS011;68833;53.160;17.920;2023-06-22T05:06:54;9.50;;;5.90;;
79365;SDS011;68833;53.160;17.920;2023-06-22T05:09:20;9.10;;;6.10;;
79365;SDS011;68833;53.160;17.920;2023-06-22T05:11:47;9.30;;;6.00;;
79365;SDS011;68833;53.160;17.920;2023-06-22T05:14:13;15.90;;;6.80;;
79365;SDS011;68833;53.160;17.920;2023-06-22T05:16:41;16.10;;;7.00;;
79365;SDS011;68833;53.160;17.920;2023-06-22T05:19:08;10.60;;;5.80;;
79365;SDS011;68833;53.160;17.920;2023-06-22T05:21:34;12.90;;;6.90;;
79365;SDS011;68833;53.160;17.920;2023-06-22T05:24:01;11.40;;;6.20;;
79365;SDS011;68833;53.160;17.920;2023-06-22T05:26:29;10.40;;;6.70;;
79365;SDS011;68833;53.160;17.920;2023-06-22T05:28:57;10.40;;;5.60;;
79365;SDS011;68833;53.160;17.920;2023-06-22T05:31:23;12.20;;;6.00;;
79365;SDS011;68833;53.160;17.920;2023-06-22T05:33:51;12.90;;;6.00;;
79365;SDS011;68833;53.160;17.920;2023-06-22T05:36:18;9.90;;;6.20;;
79365;SDS011;68833;53.160;17.920;2023-06-22T05:38:56;11.60;;;6.00;;
79365;SDS011;68833;53.160;17.920;2023-06-22T05:41:22;14.40;;;6.70;;
79365;SDS011;68833;53.160;17.920;2023-06-22T05:43:48;16.70;;;6.10;;
79365;SDS011;68833;53.160;17.920;2023-06-22T05:46:15;14.00;;;5.80;;
79365;SDS011;68833;53.160;17.920;2023-06-22T05:48:42;9.80;;;5.40;;
79365;SDS011;68833;53.160;17.920;2023-06-22T05:51:08;10.80;;;5.30;;
79365;SDS011;68833;53.160;17.920;2023-06-22T05:53:34;11.10;;;5.00;;
79365;SDS011;68833;53.160;17.920;2023-06-22T05:56:00;7.30;;;5.20;;
79365;SDS011;68833;53.160;17.920;2023-06-22T05:58:27;8.90;;;4.70;;
79365;SDS011;68833;53.160;17.920;2023-06-22T06:00:53;10.00;;;5.00;;
79365;SDS011;68833;53.160;17.920;2023-06-22T06:03:19;11.90;;;5.00;;
79365;SDS011;68833;53.160;17.920;2023-06-22T06:05:45;10.80;;;4.90;;
79365;SDS011;68833;53.160;17.920;2023-06-22T06:08:12;13.30;;;4.50;;
79365;SDS011;68833;53.160;17.920;2023-06-22T06:10:38;9.50;;;4.90;;
79365;SDS011;68833;53.160;17.920;2023-06-22T06:13:05;11.40;;;4.40;;
79365;SDS011;68833;53.160;17.920;2023-06-22T06:15:31;8.50;;;4.60;;
79365;SDS011;68833;53.160;17.920;2023-06-22T06:17:58;7.90;;;3.70;;
79365;SDS011;68833;53.160;17.920;2023-06-22T06:20:25;7.90;;;3.90;;
79365;SDS011;68833;53.160;17.920;2023-06-22T06:22:53;7.30;;;3.90;;
79365;SDS011;68833;53.160;17.920;2023-06-22T06:25:20;10.60;;;4.30;;
79365;SDS011;68833;53.160;17.920;2023-06-22T06:27:48;6.90;;;3.80;;
79365;SDS011;68833;53.160;17.920;2023-06-22T06:30:16;8.50;;;4.30;;
79365;SDS011;68833;53.160;17.920;2023-06-22T06:32:44;7.00;;;4.20;;
79365;SDS011;68833;53.160;17.920;2023-06-22T06:35:12;9.10;;;4.00;;
79365;SDS011;68833;53.160;17.920;2023-06-22T06:37:41;7.90;;;4.00;;
79365;SDS011;68833;53.160;17.920;2023-06-22T06:40:08;7.80;;;3.60;;
79365;SDS011;68833;53.160;17.920;2023-06-22T06:42:40;7.20;;;3.60;;
79365;SDS011;68833;53.160;17.920;2023-06-22T06:45:17;6.10;;;3.70;;
79365;SDS011;68833;53.160;17.920;2023-06-22T06:50:12;8.60;;;3.70;;
79365;SDS011;68833;53.160;17.920;2023-06-22T06:52:38;8.30;;;3.80;;
79365;SDS011;68833;53.160;17.920;2023-06-22T06:55:05;8.40;;;4.20;;
79365;SDS011;68833;53.160;17.920;2023-06-22T06:57:37;6.10;;;4.00;;
79365;SDS011;68833;53.160;17.920;2023-06-22T07:00:06;8.40;;;4.00;;
79365;SDS011;68833;53.160;17.920;2023-06-22T07:02:38;7.60;;;3.40;;
79365;SDS011;68833;53.160;17.920;2023-06-22T07:05:08;6.50;;;3.90;;
79365;SDS011;68833;53.160;17.920;2023-06-22T07:07:38;8.10;;;4.30;;
79365;SDS011;68833;53.160;17.920;2023-06-22T07:10:05;7.30;;;3.80;;
79365;SDS011;68833;53.160;17.920;2023-06-22T07:12:31;8.40;;;3.70;;
79365;SDS011;68833;53.160;17.920;2023-06-22T07:15:04;8.50;;;3.90;;
79365;SDS011;68833;53.160;17.920;2023-06-22T07:17:34;8.30;;;3.80;;
79365;SDS011;68833;53.160;17.920;2023-06-22T07:20:01;8.90;;;4.20;;
79365;SDS011;68833;53.160;17.920;2023-06-22T07:22:33;6.80;;;3.70;;
79365;SDS011;68833;53.160;17.920;2023-06-22T07:24:59;7.20;;;3.50;;
79365;SDS011;68833;53.160;17.920;2023-06-22T07:27:27;5.50;;;3.60;;
79365;SDS011;68833;53.160;17.920;2023-06-22T07:29:53;7.70;;;4.00;;
79365;SDS011;68833;53.160;17.920;2023-06-22T07:32:21;8.20;;;3.80;;
79365;SDS011;68833;53.160;17.920;2023-06-22T07:34:47;7.70;;;3.90;;
79365;SDS011;68833;53.160;17.920;2023-06-22T07:37:13;7.00;;;4.10;;
79365;SDS011;68833;53.160;17.920;2023-06-22T07:39:39;7.10;;;3.40;;
79365;SDS011;68833;53.160;17.920;2023-06-22T07:42:06;8.50;;;4.10;;
79365;SDS011;68833;53.160;17.920;2023-06-22T07:44:32;7.40;;;3.60;;
79365;SDS011;68833;53.160;17.920;2023-06-22T07:46:58;7.20;;;4.10;;
79365;SDS011;68833;53.160;17.920;2023-06-22T07:49:24;14.70;;;4.10;;
79365;SDS011;68833;53.160;17.920;2023-06-22T07:51:50;10.20;;;4.10;;
79365;SDS011;68833;53.160;17.920;2023-06-22T07:54:17;6.10;;;3.50;;
79365;SDS011;68833;53.160;17.920;2023-06-22T07:56:43;4.10;;;3.10;;
79365;SDS011;68833;53.160;17.920;2023-06-22T07:59:09;8.00;;;3.90;;
79365;SDS011;68833;53.160;17.920;2023-06-22T08:01:35;7.50;;;3.20;;
79365;SDS011;68833;53.160;17.920;2023-06-22T08:04:02;7.80;;;3.90;;
79365;SDS011;68833;53.160;17.920;2023-06-22T08:06:30;15.00;;;4.40;;
79365;SDS011;68833;53.160;17.920;2023-06-22T08:08:56;7.50;;;3.70;;
79365;SDS011;68833;53.160;17.920;2023-06-22T08:11:24;7.40;;;3.60;;
79365;SDS011;68833;53.160;17.920;2023-06-22T08:13:51;6.90;;;3.60;;
79365;SDS011;68833;53.160;17.920;2023-06-22T08:16:18;6.70;;;4.00;;
79365;SDS011;68833;53.160;17.920;2023-06-22T08:18:44;7.10;;;3.40;;
79365;SDS011;68833;53.160;17.920;2023-06-22T08:21:10;8.40;;;4.30;;
79365;SDS011;68833;53.160;17.920;2023-06-22T08:23:37;7.00;;;4.30;;
79365;SDS011;68833;53.160;17.920;2023-06-22T08:26:03;7.20;;;3.70;;
79365;SDS011;68833;53.160;17.920;2023-06-22T08:28:29;6.50;;;3.80;;
79365;SDS011;68833;53.160;17.920;2023-06-22T08:30:56;6.50;;;4.00;;
79365;SDS011;68833;53.160;17.920;2023-06-22T08:33:22;5.90;;;3.90;;
79365;SDS011;68833;53.160;17.920;2023-06-22T08:35:54;6.70;;;3.40;;
79365;SDS011;68833;53.160;17.920;2023-06-22T08:38:21;5.50;;;3.40;;
79365;SDS011;68833;53.160;17.920;2023-06-22T08:40:47;6.90;;;3.80;;
79365;SDS011;68833;53.160;17.920;2023-06-22T08:43:14;6.60;;;3.70;;
79365;SDS011;68833;53.160;17.920;2023-06-22T08:45:40;7.10;;;3.70;;
79365;SDS011;68833;53.160;17.920;2023-06-22T08:48:06;8.60;;;4.00;;
79365;SDS011;68833;53.160;17.920;2023-06-22T08:50:32;6.90;;;3.90;;
79365;SDS011;68833;53.160;17.920;2023-06-22T08:52:59;6.00;;;3.70;;
79365;SDS011;68833;53.160;17.920;2023-06-22T08:55:25;8.70;;;3.50;;
79365;SDS011;68833;53.160;17.920;2023-06-22T08:57:51;7.00;;;3.90;;
79365;SDS011;68833;53.160;17.920;2023-06-22T09:00:18;6.60;;;3.50;;
79365;SDS011;68833;53.160;17.920;2023-06-22T09:02:46;8.40;;;4.70;;
79365;SDS011;68833;53.160;17.920;2023-06-22T09:05:13;6.50;;;3.30;;
79365;SDS011;68833;53.160;17.920;2023-06-22T09:07:40;4.30;;;3.10;;
79365;SDS011;68833;53.160;17.920;2023-06-22T09:10:06;6.40;;;3.50;;
79365;SDS011;68833;53.160;17.920;2023-06-22T09:12:33;5.00;;;3.50;;
79365;SDS011;68833;53.160;17.920;2023-06-22T09:15:00;4.70;;;2.80;;
79365;SDS011;68833;53.160;17.920;2023-06-22T09:17:27;6.70;;;3.60;;
79365;SDS011;68833;53.160;17.920;2023-06-22T09:19:53;6.30;;;3.50;;
79365;SDS011;68833;53.160;17.920;2023-06-22T09:22:19;7.90;;;4.40;;
79365;SDS011;68833;53.160;17.920;2023-06-22T09:24:46;6.40;;;3.30;;
79365;SDS011;68833;53.160;17.920;2023-06-22T09:27:12;6.30;;;3.30;;
79365;SDS011;68833;53.160;17.920;2023-06-22T09:29:39;11.60;;;3.80;;
79365;SDS011;68833;53.160;17.920;2023-06-22T09:32:05;8.20;;;3.80;;
79365;SDS011;68833;53.160;17.920;2023-06-22T09:34:32;6.90;;;2.70;;
79365;SDS011;68833;53.160;17.920;2023-06-22T09:36:58;6.50;;;3.30;;
79365;SDS011;68833;53.160;17.920;2023-06-22T09:39:26;8.10;;;3.60;;
79365;SDS011;68833;53.160;17.920;2023-06-22T09:41:52;5.40;;;3.40;;
79365;SDS011;68833;53.160;17.920;2023-06-22T09:44:19;7.40;;;3.00;;
79365;SDS011;68833;53.160;17.920;2023-06-22T09:46:45;5.40;;;2.40;;
79365;SDS011;68833;53.160;17.920;2023-06-22T09:49:11;6.60;;;3.10;;
79365;SDS011;68833;53.160;17.920;2023-06-22T09:51:37;5.40;;;2.90;;
79365;SDS011;68833;53.160;17.920;2023-06-22T09:54:03;5.80;;;3.00;;
79365;SDS011;68833;53.160;17.920;2023-06-22T09:56:30;6.40;;;3.10;;
79365;SDS011;68833;53.160;17.920;2023-06-22T09:58:57;8.10;;;3.40;;
79365;SDS011;68833;53.160;17.920;2023-06-22T10:03:37;6.30;;;3.30;;
79365;SDS011;68833;53.160;17.920;2023-06-22T10:06:04;15.60;;;3.40;;
79365;SDS011;68833;53.160;17.920;2023-06-22T10:08:31;4.90;;;3.00;;
79365;SDS011;68833;53.160;17.920;2023-06-22T10:10:58;6.50;;;3.20;;
79365;SDS011;68833;53.160;17.920;2023-06-22T10:13:24;4.80;;;2.60;;
79365;SDS011;68833;53.160;17.920;2023-06-22T10:15:51;4.20;;;2.40;;
79365;SDS011;68833;53.160;17.920;2023-06-22T10:18:19;5.70;;;3.00;;
79365;SDS011;68833;53.160;17.920;2023-06-22T10:20:47;5.40;;;3.00;;
79365;SDS011;68833;53.160;17.920;2023-06-22T10:23:18;7.10;;;2.80;;
79365;SDS011;68833;53.160;17.920;2023-06-22T10:25:46;5.30;;;2.90;;
79365;SDS011;68833;53.160;17.920;2023-06-22T10:28:13;6.40;;;3.20;;
79365;SDS011;68833;53.160;17.920;2023-06-22T10:30:40;6.40;;;3.20;;
79365;SDS011;68833;53.160;17.920;2023-06-22T10:33:11;5.80;;;3.20;;
79365;SDS011;68833;53.160;17.920;2023-06-22T10:35:38;6.00;;;3.00;;
79365;SDS011;68833;53.160;17.920;2023-06-22T10:38:05;4.30;;;2.60;;
79365;SDS011;68833;53.160;17.920;2023-06-22T10:40:33;4.80;;;2.50;;
79365;SDS011;68833;53.160;17.920;2023-06-22T10:43:00;4.40;;;3.00;;
79365;SDS011;68833;53.160;17.920;2023-06-22T10:45:27;5.50;;;2.70;;
79365;SDS011;68833;53.160;17.920;2023-06-22T10:47:54;5.80;;;2.90;;
79365;SDS011;68833;53.160;17.920;2023-06-22T10:50:21;5.00;;;2.80;;
79365;SDS011;68833;53.160;17.920;2023-06-22T10:55:17;4.30;;;3.20;;
79365;SDS011;68833;53.160;17.920;2023-06-22T10:57:44;4.40;;;2.80;;
79365;SDS011;68833;53.160;17.920;2023-06-22T11:00:13;7.70;;;2.90;;
79365;SDS011;68833;53.160;17.920;2023-06-22T11:02:41;5.80;;;2.90;;
79365;SDS011;68833;53.160;17.920;2023-06-22T11:05:08;6.20;;;3.10;;
79365;SDS011;68833;53.160;17.920;2023-06-22T11:07:35;12.00;;;4.90;;
79365;SDS011;68833;53.160;17.920;2023-06-22T11:10:03;6.30;;;3.10;;
79365;SDS011;68833;53.160;17.920;2023-06-22T11:12:30;4.90;;;2.50;;
79365;SDS011;68833;53.160;17.920;2023-06-22T11:14:58;4.30;;;2.50;;
79365;SDS011;68833;53.160;17.920;2023-06-22T11:17:24;4.80;;;2.70;;
79365;SDS011;68833;53.160;17.920;2023-06-22T11:19:51;4.30;;;2.20;;
79365;SDS011;68833;53.160;17.920;2023-06-22T11:22:19;4.10;;;2.30;;
79365;SDS011;68833;53.160;17.920;2023-06-22T11:24:45;5.50;;;2.50;;
79365;SDS011;68833;53.160;17.920;2023-06-22T11:27:12;4.40;;;2.30;;
79365;SDS011;68833;53.160;17.920;2023-06-22T11:29:39;5.20;;;2.70;;
79365;SDS011;68833;53.160;17.920;2023-06-22T11:32:07;4.70;;;2.80;;
79365;SDS011;68833;53.160;17.920;2023-06-22T11:34:34;5.50;;;2.20;;
79365;SDS011;68833;53.160;17.920;2023-06-22T11:37:01;5.20;;;2.40;;
79365;SDS011;68833;53.160;17.920;2023-06-22T11:39:28;3.70;;;2.40;;
79365;SDS011;68833;53.160;17.920;2023-06-22T11:41:55;6.00;;;2.80;;
79365;SDS011;68833;53.160;17.920;2023-06-22T11:44:22;7.00;;;2.70;;
79365;SDS011;68833;53.160;17.920;2023-06-22T11:46:49;5.20;;;2.60;;
79365;SDS011;68833;53.160;17.920;2023-06-22T11:49:16;6.40;;;3.00;;
79365;SDS011;68833;53.160;17.920;2023-06-22T11:51:43;5.10;;;2.40;;
79365;SDS011;68833;53.160;17.920;2023-06-22T11:54:09;5.70;;;2.60;;
79365;SDS011;68833;53.160;17.920;2023-06-22T11:56:36;5.10;;;2.90;;
79365;SDS011;68833;53.160;17.920;2023-06-22T11:59:03;4.70;;;2.80;;
79365;SDS011;68833;53.160;17.920;2023-06-22T12:01:30;4.80;;;2.70;;
79365;SDS011;68833;53.160;17.920;2023-06-22T12:03:59;4.80;;;2.60;;
79365;SDS011;68833;53.160;17.920;2023-06-22T12:06:26;6.50;;;3.00;;
79365;SDS011;68833;53.160;17.920;2023-06-22T12:08:54;6.30;;;2.90;;
79365;SDS011;68833;53.160;17.920;2023-06-22T12:11:21;7.70;;;3.00;;
79365;SDS011;68833;53.160;17.920;2023-06-22T12:13:47;5.70;;;3.00;;
79365;SDS011;68833;53.160;17.920;2023-06-22T12:16:14;4.40;;;2.40;;
79365;SDS011;68833;53.160;17.920;2023-06-22T12:18:41;4.60;;;2.90;;
79365;SDS011;68833;53.160;17.920;2023-06-22T12:21:08;6.60;;;2.90;;
79365;SDS011;68833;53.160;17.920;2023-06-22T12:23:35;4.40;;;2.40;;
79365;SDS011;68833;53.160;17.920;2023-06-22T12:26:02;8.40;;;2.70;;
79365;SDS011;68833;53.160;17.920;2023-06-22T12:28:29;4.90;;;2.50;;
79365;SDS011;68833;53.160;17.920;2023-06-22T12:30:56;5.80;;;2.90;;
79365;SDS011;68833;53.160;17.920;2023-06-22T12:33:23;4.80;;;2.80;;
79365;SDS011;68833;53.160;17.920;2023-06-22T12:35:50;6.10;;;2.50;;
79365;SDS011;68833;53.160;17.920;2023-06-22T12:38:17;5.10;;;2.70;;
79365;SDS011;68833;53.160;17.920;2023-06-22T12:40:44;5.80;;;2.70;;
79365;SDS011;68833;53.160;17.920;2023-06-22T12:43:13;6.70;;;3.20;;
79365;SDS011;68833;53.160;17.920;2023-06-22T12:45:40;5.30;;;2.70;;
79365;SDS011;68833;53.160;17.920;2023-06-22T12:48:07;6.50;;;2.80;;
79365;SDS011;68833;53.160;17.920;2023-06-22T12:50:35;7.50;;;3.40;;
79365;SDS011;68833;53.160;17.920;2023-06-22T12:53:02;11.20;;;3.40;;
79365;SDS011;68833;53.160;17.920;2023-06-22T12:55:30;11.70;;;4.20;;
79365;SDS011;68833;53.160;17.920;2023-06-22T12:57:57;9.20;;;4.20;;
79365;SDS011;68833;53.160;17.920;2023-06-22T13:00:24;4.90;;;2.80;;
79365;SDS011;68833;53.160;17.920;2023-06-22T13:02:51;6.30;;;2.80;;
79365;SDS011;68833;53.160;17.920;2023-06-22T13:05:18;4.80;;;2.90;;
79365;SDS011;68833;53.160;17.920;2023-06-22T13:07:45;4.00;;;2.70;;
79365;SDS011;68833;53.160;17.920;2023-06-22T13:10:12;8.00;;;3.00;;
79365;SDS011;68833;53.160;17.920;2023-06-22T13:12:39;7.50;;;2.70;;
79365;SDS011;68833;53.160;17.920;2023-06-22T13:15:06;4.90;;;3.10;;
79365;SDS011;68833;53.160;17.920;2023-06-22T13:17:34;6.20;;;3.10;;
79365;SDS011;68833;53.160;17.920;2023-06-22T13:20:01;4.90;;;2.70;;
79365;SDS011;68833;53.160;17.920;2023-06-22T13:22:34;4.10;;;2.90;;
79365;SDS011;68833;53.160;17.920;2023-06-22T13:25:11;22.10;;;13.20;;
79365;SDS011;68833;53.160;17.920;2023-06-22T13:27:39;6.90;;;3.50;;
79365;SDS011;68833;53.160;17.920;2023-06-22T13:30:07;7.60;;;4.60;;
79365;SDS011;68833;53.160;17.920;2023-06-22T13:32:35;6.00;;;3.20;;
79365;SDS011;68833;53.160;17.920;2023-06-22T13:35:02;5.80;;;2.90;;
79365;SDS011;68833;53.160;17.920;2023-06-22T13:37:29;4.70;;;3.30;;
79365;SDS011;68833;53.160;17.920;2023-06-22T13:39:56;5.20;;;2.90;;
79365;SDS011;68833;53.160;17.920;2023-06-22T13:42:25;6.90;;;3.50;;
79365;SDS011;68833;53.160;17.920;2023-06-22T13:44:52;6.20;;;3.10;;
79365;SDS011;68833;53.160;17.920;2023-06-22T13:47:19;6.30;;;3.40;;
79365;SDS011;68833;53.160;17.920;2023-06-22T13:49:46;6.60;;;2.80;;
79365;SDS011;68833;53.160;17.920;2023-06-22T13:52:13;4.00;;;2.70;;
79365;SDS011;68833;53.160;17.920;2023-06-22T13:54:40;5.80;;;3.00;;
79365;SDS011;68833;53.160;17.920;2023-06-22T13:57:07;6.60;;;3.10;;
79365;SDS011;68833;53.160;17.920;2023-06-22T13:59:34;5.10;;;2.90;;
79365;SDS011;68833;53.160;17.920;2023-06-22T14:02:01;5.60;;;2.80;;
79365;SDS011;68833;53.160;17.920;2023-06-22T14:04:28;7.20;;;2.80;;
79365;SDS011;68833;53.160;17.920;2023-06-22T14:06:55;5.10;;;2.60;;
79365;SDS011;68833;53.160;17.920;2023-06-22T14:09:22;7.10;;;2.90;;
79365;SDS011;68833;53.160;17.920;2023-06-22T14:11:49;5.60;;;2.80;;
79365;SDS011;68833;53.160;17.920;2023-06-22T14:14:16;5.50;;;3.10;;
79365;SDS011;68833;53.160;17.920;2023-06-22T14:16:43;5.30;;;2.90;;
79365;SDS011;68833;53.160;17.920;2023-06-22T14:19:10;5.50;;;3.00;;
79365;SDS011;68833;53.160;17.920;2023-06-22T14:21:37;6.30;;;3.30;;
79365;SDS011;68833;53.160;17.920;2023-06-22T14:24:04;7.60;;;3.10;;
79365;SDS011;68833;53.160;17.920;2023-06-22T14:26:31;9.80;;;3.50;;
79365;SDS011;68833;53.160;17.920;2023-06-22T14:28:58;5.20;;;2.50;;
79365;SDS011;68833;53.160;17.920;2023-06-22T14:31:25;4.40;;;2.80;;
79365;SDS011;68833;53.160;17.920;2023-06-22T14:33:51;4.90;;;3.10;;
79365;SDS011;68833;53.160;17.920;2023-06-22T14:36:18;4.10;;;2.60;;
79365;SDS011;68833;53.160;17.920;2023-06-22T14:38:45;5.50;;;3.00;;
79365;SDS011;68833;53.160;17.920;2023-06-22T14:41:13;6.20;;;3.00;;
79365;SDS011;68833;53.160;17.920;2023-06-22T14:43:45;4.70;;;2.80;;
79365;SDS011;68833;53.160;17.920;2023-06-22T14:46:19;9.00;;;3.60;;
79365;SDS011;68833;53.160;17.920;2023-06-22T14:48:46;6.60;;;3.60;;